Time;durP1;ratioP1;P1;durP2;ratioP2;P2;SDS_P1;SDS_P2;PMS_P1;PMS_P2;Temp;Humidity;BMP_temperature;BMP_pressure;BME280_temperature;BME280_humidity;BME280_pressure;Samples;Min_cycle;Max_cycle;Signal;HPM_P1;HPM_P2
2023/07/04 00:04:49;;;;;;;2.30;2.10;;;;;;;19.64;49.54;99619.38;10409354;28;20772;-69
2023/07/04 00:09:51;;;;;;;2.83;2.10;;;;;;;19.80;49.19;99612.28;10400252;28;20311;-69
2023/07/04 00:14:53;;;;;;;2.63;2.05;;;;;;;19.70;48.34;99701.72;10405507;28;20209;-69
2023/07/04 00:19:55;;;;;;;3.13;2.37;;;;;;;18.86;49.05;99756.56;10402116;28;20286;-67
2023/07/04 00:24:57;;;;;;;2.85;2.35;;;;;;;19.73;48.19;99663.22;10409320;28;20228;-69
2023/07/04 00:29:58;;;;;;;3.30;2.58;;;;;;;18.97;50.10;99660.84;10415889;28;20273;-69
2023/07/04 00:35:02;;;;;;;2.83;2.50;;;;;;;18.30;50.71;99731.84;10412608;28;20197;-69
2023/07/04 00:40:11;;;;;;;2.72;2.40;;;;;;;19.79;49.06;99621.50;10406195;28;20235;-69
2023/07/04 00:45:19;;;;;;;3.63;2.67;;;;;;;19.57;49.13;99654.84;10407997;28;20380;-69
2023/07/04 00:50:26;;;;;;;3.77;2.30;;;;;;;19.39;50.34;99627.94;10407266;28;20225;-69
2023/07/04 00:55:33;;;;;;;2.60;2.38;;;;;;;18.27;51.11;99744.75;10412737;28;20230;-69
2023/07/04 01:00:37;;;;;;;3.33;2.47;;;;;;;19.28;49.79;99666.81;10411211;28;20229;-69
2023/07/04 01:06:00;;;;;;;2.45;2.17;;;;;;;18.55;51.06;99690.91;10409755;28;20289;-68
2023/07/04 01:11:08;;;;;;;3.43;2.77;;;;;;;19.26;49.62;99669.75;10402759;28;20374;-69
2023/07/04 01:16:15;;;;;;;5.83;2.50;;;;;;;19.76;48.72;99673.59;10403324;28;20643;-69
2023/07/04 01:21:22;;;;;;;2.73;2.20;;;;;;;20.21;47.95;99647.31;10411682;28;20220;-69
2023/07/04 01:26:30;;;;;;;3.43;2.63;;;;;;;19.27;49.54;99700.44;10395731;28;20277;-70
2023/07/04 01:31:33;;;;;;;2.80;2.30;;;;;;;18.58;51.52;99720.25;10413843;28;20228;-70
2023/07/04 01:36:41;;;;;;;3.73;2.30;;;;;;;17.61;53.35;99699.88;10408990;28;20209;-69
2023/07/04 01:41:45;;;;;;;3.03;2.37;;;;;;;17.73;53.41;99696.16;10396706;28;20225;-69
2023/07/04 01:46:47;;;;;;;4.17;2.37;;;;;;;18.62;52.17;99640.94;10401932;28;20642;-69
2023/07/04 01:51:49;;;;;;;4.43;2.90;;;;;;;18.27;52.21;99690.59;10415019;28;20267;-69
2023/07/04 01:56:52;;;;;;;3.05;2.30;;;;;;;18.50;53.00;99642.03;10411628;28;20291;-70
2023/07/04 02:01:54;;;;;;;3.23;2.47;;;;;;;18.52;53.17;99618.25;10413319;28;20633;-69
2023/07/04 02:06:56;;;;;;;2.47;2.27;;;;;;;17.76;54.61;99658.84;10407218;28;20321;-71
2023/07/04 02:11:58;;;;;;;2.58;2.20;;;;;;;18.06;54.24;99637.06;10405441;28;20224;-70
2023/07/04 02:17:00;;;;;;;2.67;2.37;;;;;;;18.46;53.07;99657.97;10407549;28;20204;-70
2023/07/04 02:22:02;;;;;;;2.47;2.27;;;;;;;18.24;53.76;99657.75;10400489;28;20730;-69
2023/07/04 02:27:04;;;;;;;2.37;2.17;;;;;;;17.90;54.52;99684.63;10410688;28;20287;-69
2023/07/04 02:32:06;;;;;;;2.80;2.17;;;;;;;19.23;51.65;99626.84;10404541;28;20220;-70
2023/07/04 02:37:07;;;;;;;3.23;2.27;;;;;;;18.89;52.78;99634.09;10402989;28;20315;-70
2023/07/04 02:42:09;;;;;;;3.00;2.70;;;;;;;18.11;53.97;99680.50;10408238;28;20339;-69
2023/07/04 02:47:11;;;;;;;2.80;2.23;;;;;;;18.38;52.76;99691.66;10412457;28;20300;-69
2023/07/04 02:52:13;;;;;;;3.87;2.30;;;;;;;18.69;52.46;99651.63;10388180;28;20252;-69
2023/07/04 02:57:16;;;;;;;4.30;2.37;;;;;;;19.02;51.29;99694.28;10404541;28;20743;-70
2023/07/04 03:02:18;;;;;;;3.40;2.50;;;;;;;18.56;52.44;99706.94;10409621;28;20957;-70
2023/07/04 03:07:20;;;;;;;3.00;2.70;;;;;;;17.81;53.34;99753.69;10416522;28;20315;-70
2023/07/04 03:12:22;;;;;;;3.30;2.23;;;;;;;18.15;53.63;99707.91;10399196;28;20377;-69
2023/07/04 03:17:24;;;;;;;4.30;2.70;;;;;;;18.19;54.65;99663.06;10405185;28;20205;-70
2023/07/04 03:22:25;;;;;;;4.60;2.60;;;;;;;18.43;53.80;99661.97;10400282;28;20225;-70
2023/07/04 03:27:27;;;;;;;3.10;2.80;;;;;;;16.54;56.42;99771.56;10405486;28;20236;-70
2023/07/04 03:32:29;;;;;;;2.87;2.53;;;;;;;17.61;55.14;99679.03;10405444;28;20300;-69
2023/07/04 03:37:33;;;;;;;3.80;3.00;;;;;;;17.00;55.88;99735.09;10403949;28;20209;-69
2023/07/04 03:42:36;;;;;;;3.53;2.90;;;;;;;15.88;58.88;99727.94;10404908;28;20315;-70
2023/07/04 03:47:38;;;;;;;3.43;2.70;;;;;;;15.46;59.47;99716.84;10402902;28;20212;-69
2023/07/04 03:52:40;;;;;;;4.10;2.73;;;;;;;17.06;56.17;99706.31;10399703;28;20232;-69
2023/07/04 03:57:42;;;;;;;5.03;2.97;;;;;;;17.61;55.37;99686.34;10395185;28;20221;-69
2023/07/04 04:02:44;;;;;;;3.47;2.90;;;;;;;18.01;53.30;99789.38;10405392;28;20248;-69
2023/07/04 04:07:49;;;;;;;3.13;2.80;;;;;;;17.11;56.25;99750.53;10392608;28;20224;-69
2023/07/04 04:12:51;;;;;;;3.37;3.07;;;;;;;16.89;56.45;99820.44;10410029;28;20229;-68
2023/07/04 04:17:54;;;;;;;3.50;3.13;;;;;;;17.93;55.08;99722.03;10407881;28;20604;-70
2023/07/04 04:22:55;;;;;;;2.70;2.50;;;;;;;18.61;53.38;99746.88;10416601;28;20661;-70
2023/07/04 04:27:57;;;;;;;3.20;2.77;;;;;;;17.80;54.90;99801.59;10411792;28;20219;-70
2023/07/04 04:33:02;;;;;;;3.77;2.80;;;;;;;18.24;54.08;99774.22;10418793;28;20236;-69
2023/07/04 04:38:04;;;;;;;2.80;2.60;;;;;;;17.47;55.86;99807.47;10406620;28;20240;-69
2023/07/04 04:43:05;;;;;;;6.67;3.13;;;;;;;17.93;54.92;99773.47;10417405;28;20642;-69
2023/07/04 04:48:07;;;;;;;3.63;3.00;;;;;;;17.21;56.27;99823.00;10399248;28;20720;-69
2023/07/04 04:53:14;;;;;;;2.93;2.20;;;;;;;17.83;55.12;99792.16;10418087;28;20291;-69
2023/07/04 04:58:16;;;;;;;3.80;2.70;;;;;;;17.90;55.42;99771.25;10404041;28;20208;-69
2023/07/04 05:03:18;;;;;;;3.23;2.90;;;;;;;18.43;54.49;99772.22;10409339;28;20307;-70
2023/07/04 05:08:19;;;;;;;3.63;2.70;;;;;;;18.57;54.28;99748.41;10409105;28;20296;-69
2023/07/04 05:13:21;;;;;;;4.93;2.70;;;;;;;18.48;54.76;99758.78;10411709;28;20210;-69
2023/07/04 05:18:23;;;;;;;2.83;2.50;;;;;;;19.19;52.61;99797.41;10416379;28;20220;-70
2023/07/04 05:23:25;;;;;;;2.97;2.67;;;;;;;18.94;53.46;99788.75;10404430;28;20216;-69
2023/07/04 05:28:28;;;;;;;3.50;3.17;;;;;;;18.64;54.00;99811.41;10411310;28;20315;-70
2023/07/04 05:33:32;;;;;;;3.57;2.97;;;;;;;19.26;52.66;99796.44;10406920;28;20247;-70
2023/07/04 05:38:35;;;;;;;3.43;2.63;;;;;;;19.68;51.95;99788.00;10413057;28;20224;-69
2023/07/04 05:43:37;;;;;;;3.33;2.70;;;;;;;19.03;51.82;99871.41;10418084;28;20228;-69
2023/07/04 05:48:40;;;;;;;4.80;2.78;;;;;;;19.75;51.22;99794.09;10409004;28;20359;-69
2023/07/04 05:53:46;;;;;;;4.97;3.00;;;;;;;17.49;54.54;99810.75;10419979;28;20258;-70
2023/07/04 05:58:59;;;;;;;5.90;2.87;;;;;;;18.41;52.06;99840.19;10408464;28;20338;-69
2023/07/04 06:04:02;;;;;;;3.03;2.30;;;;;;;18.07;51.86;99869.66;10414120;28;20323;-69
2023/07/04 06:09:07;;;;;;;3.47;2.63;;;;;;;18.24;50.28;99855.47;10403275;28;20243;-69
2023/07/04 06:14:09;;;;;;;5.78;2.38;;;;;;;19.06;49.14;99823.97;10406060;28;20258;-69
2023/07/04 06:19:11;;;;;;;4.73;2.80;;;;;;;17.59;51.35;99865.13;10409966;28;20256;-69
2023/07/04 06:24:16;;;;;;;4.90;2.73;;;;;;;17.65;50.29;99904.84;10404893;28;20335;-68
2023/07/04 06:29:18;;;;;;;3.90;2.50;;;;;;;17.89;49.64;99896.81;10403447;28;20287;-70
2023/07/04 06:34:19;;;;;;;6.10;2.65;;;;;;;19.56;47.56;99843.16;10410090;28;20205;-69
2023/07/04 06:39:21;;;;;;;4.20;2.75;;;;;;;20.25;46.79;99825.06;10412533;28;20256;-69
2023/07/04 06:44:23;;;;;;;5.97;3.10;;;;;;;18.99;47.35;99881.88;10407176;28;20233;-69
2023/07/04 06:49:24;;;;;;;7.25;3.00;;;;;;;17.57;48.64;99921.34;10410722;28;20336;-70
2023/07/04 06:54:26;;;;;;;5.68;2.88;;;;;;;19.10;47.28;99839.53;10409564;28;20204;-69
2023/07/04 06:59:28;;;;;;;4.95;2.80;;;;;;;20.19;45.46;99837.75;10407741;28;20233;-69
2023/07/04 07:04:29;;;;;;;5.10;2.90;;;;;;;20.22;45.66;99848.13;10409197;28;20244;-69
2023/07/04 07:09:36;;;;;;;4.25;2.63;;;;;;;19.99;45.52;99883.53;10405226;28;20240;-69
2023/07/04 07:14:38;;;;;;;4.57;2.85;;;;;;;19.79;45.15;99920.13;10411301;28;20259;-70
2023/07/04 07:19:40;;;;;;;5.13;2.88;;;;;;;20.46;44.14;99918.59;10406966;28;20327;-69
2023/07/04 07:24:42;;;;;;;8.05;3.10;;;;;;;20.15;44.71;99879.22;10401750;28;20323;-69
2023/07/04 07:29:47;;;;;;;4.22;2.97;;;;;;;20.57;44.14;99855.16;10414017;28;21305;-69
2023/07/04 07:34:49;;;;;;;6.60;3.05;;;;;;;20.65;43.55;99870.25;10403254;28;20262;-69
2023/07/04 07:39:52;;;;;;;8.65;3.42;;;;;;;20.30;43.59;99880.31;10410628;28;20232;-69
2023/07/04 07:44:53;;;;;;;5.95;3.17;;;;;;;20.58;43.48;99905.75;10408294;28;20803;-69
2023/07/04 07:49:55;;;;;;;7.20;3.15;;;;;;;20.67;43.20;99898.81;10416544;28;20232;-70
2023/07/04 07:54:57;;;;;;;7.93;3.10;;;;;;;20.54;41.77;99882.84;10417662;28;20208;-69
2023/07/04 07:59:59;;;;;;;6.70;3.13;;;;;;;20.68;42.13;99888.75;10419383;28;20327;-69
2023/07/04 08:05:01;;;;;;;4.63;2.90;;;;;;;20.94;41.45;99870.13;10413852;28;20241;-69
2023/07/04 08:10:03;;;;;;;6.90;3.35;;;;;;;21.64;41.00;99835.84;10415694;28;20229;-69
2023/07/04 08:15:05;;;;;;;4.20;3.13;;;;;;;21.51;40.15;99860.75;10407916;28;20204;-70
2023/07/04 08:20:08;;;;;;;7.70;3.60;;;;;;;20.25;40.09;99933.75;10419342;28;20221;-69
2023/07/04 08:25:11;;;;;;;8.10;3.70;;;;;;;20.93;39.89;99893.75;10404652;28;20237;-69
2023/07/04 08:30:13;;;;;;;11.60;4.05;;;;;;;21.76;39.25;99817.44;10408419;28;20228;-70
2023/07/04 08:35:15;;;;;;;8.40;3.30;;;;;;;21.27;39.69;99832.97;10406886;28;20205;-69
2023/07/04 08:40:18;;;;;;;8.55;3.10;;;;;;;21.58;39.08;99809.66;10396603;28;20229;-69
2023/07/04 08:45:26;;;;;;;5.75;3.53;;;;;;;20.68;40.10;99835.22;10396237;28;20263;-69
2023/07/04 08:50:31;;;;;;;6.30;3.38;;;;;;;21.36;39.06;99859.50;10410436;28;20309;-69
2023/07/04 08:55:42;;;;;;;4.75;2.90;;;;;;;21.54;39.67;99855.63;10400905;28;20207;-69
2023/07/04 09:00:44;;;;;;;6.07;3.33;;;;;;;22.42;38.74;99802.72;10407793;28;20234;-69
2023/07/04 09:06:10;;;;;;;7.28;3.22;;;;;;;21.42;39.41;99854.94;10410552;28;20706;-70
2023/07/04 09:11:14;;;;;;;5.85;3.25;;;;;;;21.86;39.55;99794.91;10403485;28;20260;-69
2023/07/04 09:16:52;;;;;;;7.60;3.83;;;;;;;21.97;38.50;99847.63;10416637;28;20261;-69
2023/07/04 09:21:54;;;;;;;9.80;3.75;;;;;;;22.35;38.07;99799.38;10441386;28;20220;-69
2023/07/04 09:26:56;;;;;;;8.40;3.88;;;;;;;22.02;37.35;99853.09;10407189;28;20306;-69
2023/07/04 09:32:01;;;;;;;6.53;3.78;;;;;;;22.34;37.91;99805.94;10409257;28;20260;-69
2023/07/04 09:37:10;;;;;;;6.43;3.50;;;;;;;21.91;37.19;99815.91;10410394;28;20257;-70
2023/07/04 09:42:12;;;;;;;7.28;3.22;;;;;;;22.56;36.87;99799.53;10409810;28;20282;-70
2023/07/04 09:47:36;;;;;;;7.03;3.60;;;;;;;23.50;36.16;99764.94;10415261;28;20229;-70
2023/07/04 09:52:38;;;;;;;7.00;3.33;;;;;;;22.58;36.39;99811.81;10410387;28;20995;-69
2023/07/04 09:57:40;;;;;;;11.00;3.70;;;;;;;23.80;35.82;99766.03;10407617;28;20295;-69
2023/07/04 10:02:43;;;;;;;6.15;3.13;;;;;;;23.85;35.31;99757.03;10411279;28;20938;-69
2023/07/04 10:08:02;;;;;;;5.60;3.15;;;;;;;23.45;35.27;99798.50;10417533;28;20229;-70
2023/07/04 10:13:07;;;;;;;5.28;3.08;;;;;;;24.39;34.48;99772.81;10416673;28;20274;-69
2023/07/04 10:18:31;;;;;;;4.53;3.35;;;;;;;23.91;34.93;99766.88;10413357;28;20197;-69
2023/07/04 10:23:34;;;;;;;4.85;3.20;;;;;;;23.75;34.15;99755.97;10395277;28;20756;-70
2023/07/04 10:28:37;;;;;;;4.65;3.20;;;;;;;23.48;34.93;99741.72;10414271;28;20878;-69
2023/07/04 10:33:47;;;;;;;6.68;3.75;;;;;;;22.84;35.56;99780.03;10410561;28;20237;-70
2023/07/04 10:38:51;;;;;;;6.20;3.40;;;;;;;23.45;35.24;99724.78;10406468;28;20281;-70
2023/07/04 10:43:59;;;;;;;5.75;3.45;;;;;;;22.89;35.32;99691.91;10407910;28;20225;-70
2023/07/04 10:49:05;;;;;;;6.32;3.63;;;;;;;23.31;35.53;99693.63;10405356;28;20239;-69
2023/07/04 10:54:11;;;;;;;7.60;4.13;;;;;;;23.89;34.37;99707.03;10406388;28;20291;-70
2023/07/04 10:59:18;;;;;;;6.22;3.65;;;;;;;22.65;35.50;99743.41;10397304;28;20237;-70
2023/07/04 11:06:30;;;;;;;6.22;3.28;;;;;;;23.04;36.15;99672.88;10468945;27;21429;-71
2023/07/04 11:11:32;;;;;;;5.00;3.20;;;;;;;22.53;36.44;99650.91;10425993;28;20272;-70
2023/07/04 11:16:39;;;;;;;5.60;3.28;;;;;;;22.06;36.22;99698.91;10425096;28;20211;-70
2023/07/04 11:22:03;;;;;;;5.10;3.17;;;;;;;23.12;35.46;99663.34;10431930;28;20224;-71
2023/07/04 11:27:14;;;;;;;6.88;3.78;;;;;;;22.58;35.13;99704.66;10434907;28;20203;-70
2023/07/04 11:32:19;;;;;;;7.22;3.40;;;;;;;24.03;33.83;99663.56;10442718;28;20216;-70
2023/07/04 11:37:25;;;;;;;7.95;3.90;;;;;;;23.72;34.29;99666.34;10427871;28;20307;-70
2023/07/04 11:42:39;;;;;;;4.57;2.97;;;;;;;23.79;35.17;99634.09;10431179;28;20239;-70
2023/07/04 11:47:51;;;;;;;5.70;2.80;;;;;;;24.37;34.78;99628.16;10433731;28;20208;-70
2023/07/04 11:52:57;;;;;;;6.93;3.08;;;;;;;24.40;34.22;99626.00;10436235;28;20224;-68
2023/07/04 11:58:01;;;;;;;5.05;3.00;;;;;;;22.51;35.02;99675.72;10436961;28;20273;-70
2023/07/04 12:03:19;;;;;;;7.30;3.28;;;;;;;24.15;34.31;99631.28;10427829;28;20757;-69
2023/07/04 12:08:50;;;;;;;6.32;3.10;;;;;;;22.79;35.00;99659.16;10417636;28;20215;-69
2023/07/04 12:13:52;;;;;;;5.40;3.28;;;;;;;24.47;33.89;99619.09;10422724;28;20232;-69
2023/07/04 12:18:56;;;;;;;3.42;2.42;;;;;;;24.20;34.70;99605.84;10394466;28;20237;-69
2023/07/04 12:24:03;;;;;;;5.70;3.58;;;;;;;24.25;34.36;99638.63;10400591;28;20671;-70
2023/07/04 12:29:05;;;;;;;5.97;3.17;;;;;;;24.16;34.71;99618.44;10403960;28;20300;-69
2023/07/04 12:34:17;;;;;;;5.38;3.25;;;;;;;22.39;35.24;99660.66;10408787;28;20201;-69
2023/07/04 12:39:27;;;;;;;4.70;3.20;;;;;;;23.47;34.93;99620.75;10400491;28;20233;-68
2023/07/04 12:44:36;;;;;;;5.78;3.13;;;;;;;24.20;34.64;99608.56;10391623;28;20645;-69
2023/07/04 12:49:42;;;;;;;7.15;3.42;;;;;;;24.06;34.43;99613.81;10394909;28;20319;-69
2023/07/04 12:54:45;;;;;;;5.80;3.67;;;;;;;25.04;33.80;99596.88;10395128;28;20213;-69
2023/07/04 12:59:48;;;;;;;6.70;3.45;;;;;;;24.70;33.95;99594.94;10407352;28;20286;-69
2023/07/04 13:04:53;;;;;;;4.03;2.88;;;;;;;24.31;34.38;99620.28;10389020;28;20245;-69
2023/07/04 13:09:57;;;;;;;5.45;3.22;;;;;;;23.40;34.96;99631.16;10400791;28;20758;-69
2023/07/04 13:15:18;;;;;;;5.38;3.08;;;;;;;24.72;34.57;99574.38;10395031;28;20259;-69
2023/07/04 13:20:21;;;;;;;6.60;3.15;;;;;;;24.40;34.55;99571.31;10400465;28;20228;-69
2023/07/04 13:25:25;;;;;;;6.60;3.67;;;;;;;25.82;33.09;99549.28;10394899;28;20630;-69
2023/07/04 13:30:42;;;;;;;4.43;2.70;;;;;;;23.94;35.04;99589.53;10394209;28;20243;-69
2023/07/04 13:36:12;;;;;;;5.90;3.45;;;;;;;23.98;34.71;99578.84;10401262;28;20202;-69
2023/07/04 13:41:16;;;;;;;6.55;2.92;;;;;;;25.32;33.84;99520.53;10388626;28;20280;-71
2023/07/04 13:46:18;;;;;;;5.80;2.92;;;;;;;24.34;34.25;99534.97;10395946;28;20229;-71
2023/07/04 13:51:22;;;;;;;4.13;2.92;;;;;;;24.44;34.47;99573.16;10398460;28;20251;-71
2023/07/04 13:56:24;;;;;;;5.85;3.20;;;;;;;25.14;33.29;99552.16;10399573;28;20212;-68
2023/07/04 14:01:26;;;;;;;4.95;3.00;;;;;;;25.11;34.55;99554.34;10391441;28;20282;-69
2023/07/04 14:06:30;;;;;;;5.10;3.22;;;;;;;24.35;34.92;99526.47;10395134;28;20258;-70
2023/07/04 14:11:32;;;;;;;6.20;3.10;;;;;;;25.58;33.36;99529.28;10398177;28;20233;-70
2023/07/04 14:16:34;;;;;;;4.57;3.08;;;;;;;25.27;33.97;99502.22;10401992;28;20824;-70
2023/07/04 14:21:56;;;;;;;5.22;2.90;;;;;;;25.32;33.66;99575.28;10398484;28;21651;-70
2023/07/04 14:26:58;;;;;;;5.93;2.97;;;;;;;25.73;33.41;99525.56;10404951;28;20211;-71
2023/07/04 14:31:59;;;;;;;5.93;3.25;;;;;;;25.24;33.68;99552.91;10403321;28;20270;-71
2023/07/04 14:37:03;;;;;;;4.70;3.03;;;;;;;26.03;33.72;99514.19;10391957;28;20211;-71
2023/07/04 14:42:06;;;;;;;6.30;3.45;;;;;;;25.32;33.74;99524.09;10399879;28;20236;-71
2023/07/04 14:47:14;;;;;;;5.25;3.15;;;;;;;25.78;33.57;99509.06;10401071;28;20263;-71
2023/07/04 14:52:16;;;;;;;5.38;3.08;;;;;;;25.80;33.41;99532.31;10406206;28;20251;-67
2023/07/04 14:57:21;;;;;;;5.75;3.35;;;;;;;25.70;33.78;99529.66;10403289;28;20205;-69
2023/07/04 15:02:23;;;;;;;4.38;3.00;;;;;;;26.26;33.18;99508.16;10401120;28;20240;-74
2023/07/04 15:07:25;;;;;;;6.38;3.13;;;;;;;25.90;33.70;99519.59;10394781;28;20232;-73
2023/07/04 15:12:27;;;;;;;5.15;3.42;;;;;;;25.36;33.00;99527.06;10409217;28;20688;-70
2023/07/04 15:17:30;;;;;;;4.47;2.85;;;;;;;25.00;33.24;99516.41;10394254;28;20239;-69
2023/07/04 15:22:32;;;;;;;4.10;2.90;;;;;;;25.81;33.29;99508.47;10394328;28;20232;-67
2023/07/04 15:27:34;;;;;;;5.20;3.17;;;;;;;26.76;33.04;99470.06;10399144;22;20232;-34
2023/07/04 15:32:36;;;;;;;5.13;2.85;;;;;;;26.05;33.14;99489.25;10349351;28;20217;-35
2023/07/04 15:37:37;;;;;;;6.47;3.45;;;;;;;26.29;33.40;99467.25;10374528;28;20291;-35
2023/07/04 15:42:50;;;;;;;6.03;3.00;;;;;;;26.01;33.49;99471.75;10358894;28;20270;-34
2023/07/04 15:47:51;;;;;;;5.82;3.15;;;;;;;26.17;32.94;99486.06;10355586;28;20283;-34
2023/07/04 15:52:54;;;;;;;6.20;3.15;;;;;;;26.31;32.95;99502.59;10367114;28;20201;-34
2023/07/04 15:57:56;;;;;;;4.22;2.60;;;;;;;26.84;32.96;99472.13;10367613;28;20245;-34
2023/07/04 16:02:58;;;;;;;5.32;3.03;;;;;;;25.74;34.04;99506.06;10356332;28;20225;-34
2023/07/04 16:08:00;;;;;;;6.78;2.90;;;;;;;25.28;34.24;99514.81;10364911;28;20229;-34
2023/07/04 16:13:02;;;;;;;4.13;2.88;;;;;;;24.77;36.73;99468.78;10357731;28;20324;-36
2023/07/04 16:18:04;;;;;;;3.22;2.35;;;;;;;22.80;40.46;99427.06;10359361;28;20228;-36
2023/07/04 16:23:06;;;;;;;3.50;2.47;;;;;;;22.71;41.47;99396.00;10364363;28;20237;-35
2023/07/04 16:28:09;;;;;;;3.08;2.22;;;;;;;22.92;40.98;99374.94;10353780;28;20245;-36
2023/07/04 16:33:12;;;;;;;2.45;2.22;;;;;;;21.90;43.50;99375.78;10362952;28;20589;-35
2023/07/04 16:38:14;;;;;;;2.47;1.90;;;;;;;22.47;44.07;99339.28;10356913;28;20222;-35
2023/07/04 16:43:15;;;;;;;3.00;2.20;;;;;;;21.46;48.73;99344.38;10365654;28;20619;-34
2023/07/04 16:48:17;;;;;;;5.85;2.20;;;;;;;21.26;50.83;99319.81;10357705;28;20245;-33
2023/07/04 16:53:19;;;;;;;3.85;2.65;;;;;;;21.54;52.00;99289.41;10367697;28;20263;-32
2023/07/04 16:58:21;;;;;;;5.50;2.75;;;;;;;22.31;50.37;99299.53;10362378;28;20597;-33
2023/07/04 17:03:23;;;;;;;3.15;2.33;;;;;;;22.81;49.73;99318.81;10360207;28;20257;-33
2023/07/04 17:08:25;;;;;;;4.65;2.72;;;;;;;21.74;52.02;99334.88;10360779;28;20268;-33
2023/07/04 17:13:30;;;;;;;3.30;2.60;;;;;;;20.65;53.02;99372.78;10369158;28;20209;-33
2023/07/04 17:18:40;;;;;;;3.78;2.40;;;;;;;22.38;50.54;99335.47;10357663;28;20315;-33
2023/07/04 17:23:42;;;;;;;3.78;2.60;;;;;;;23.31;48.30;99346.16;10357824;28;20240;-34
2023/07/04 17:28:44;;;;;;;2.83;2.30;;;;;;;21.99;50.76;99400.59;10358238;28;20738;-33
2023/07/04 17:33:46;;;;;;;6.13;2.38;;;;;;;22.34;50.04;99378.00;10359011;28;20929;-33
2023/07/04 17:38:48;;;;;;;2.95;2.60;;;;;;;21.94;51.66;99363.28;10365948;28;20229;-33
2023/07/04 17:43:50;;;;;;;4.18;2.90;;;;;;;21.27;52.67;99406.56;10359995;28;20236;-33
2023/07/04 17:48:52;;;;;;;3.13;2.60;;;;;;;20.60;54.36;99435.25;10355846;28;20703;-33
2023/07/04 17:53:54;;;;;;;4.53;2.97;;;;;;;22.07;50.63;99447.19;10366344;28;20213;-33
2023/07/04 17:58:56;;;;;;;4.53;2.40;;;;;;;22.43;49.96;99460.84;10362570;28;20681;-33
2023/07/04 18:03:58;;;;;;;3.22;2.35;;;;;;;21.97;51.04;99448.00;10360045;28;20685;-33
2023/07/04 18:09:04;;;;;;;3.88;2.63;;;;;;;21.50;51.87;99475.31;10358975;28;20316;-33
2023/07/04 18:14:06;;;;;;;3.25;2.65;;;;;;;22.01;51.10;99469.25;10353105;28;20209;-34
2023/07/04 18:19:08;;;;;;;3.45;2.45;;;;;;;21.89;51.33;99434.88;10355068;28;20694;-33
2023/07/04 18:24:10;;;;;;;3.50;2.35;;;;;;;23.39;48.85;99435.66;10361263;28;20381;-33
2023/07/04 18:29:12;;;;;;;3.30;2.53;;;;;;;21.96;51.90;99454.53;10355127;28;20653;-33
2023/07/04 18:34:14;;;;;;;3.72;2.58;;;;;;;22.61;50.27;99431.47;10354142;28;20614;-33
2023/07/04 18:39:16;;;;;;;2.83;2.35;;;;;;;21.64;52.30;99435.59;10352981;28;20226;-33
2023/07/04 18:44:18;;;;;;;4.35;2.30;;;;;;;22.50;50.16;99447.81;10354549;28;20230;-34
2023/07/04 18:49:24;;;;;;;3.70;2.40;;;;;;;22.29;50.56;99455.13;10352249;28;20276;-33
2023/07/04 18:54:29;;;;;;;2.80;2.20;;;;;;;21.45;51.55;99473.38;9487261;28;10000810;-34
2023/07/04 18:59:31;;;;;;;2.00;1.90;;;;;;;21.75;50.78;99471.88;10429652;28;78558;-33
2023/07/04 19:08:03;;;;;;;1.90;1.70;;;;;;;22.21;49.90;99471.19;10443025;28;20827;-34
2023/07/04 19:13:05;;;;;;;2.40;1.90;;;;;;;22.11;50.29;99467.34;10424990;28;20820;-33
2023/07/04 19:18:06;;;;;;;2.45;2.00;;;;;;;21.76;50.30;99463.44;10426548;28;20295;-33
2023/07/04 19:23:08;;;;;;;3.17;1.90;;;;;;;21.86;50.72;99472.72;10417481;28;20251;-33
2023/07/04 19:28:13;;;;;;;2.88;1.98;;;;;;;23.13;48.41;99463.06;10427039;28;20603;-33
2023/07/04 19:33:15;;;;;;;2.78;2.00;;;;;;;21.95;50.17;99526.44;10421066;28;20310;-33
2023/07/04 19:38:19;;;;;;;2.30;2.10;;;;;;;21.98;50.25;99492.38;10425983;28;20334;-33
2023/07/04 19:43:22;;;;;;;2.70;2.05;;;;;;;21.81;50.73;99492.56;10428775;28;20231;-33
2023/07/04 19:48:25;;;;;;;3.72;2.10;;;;;;;21.58;51.05;99478.34;10428484;28;20240;-33
2023/07/04 19:53:27;;;;;;;2.00;1.80;;;;;;;21.50;50.55;99507.97;10427264;28;20224;-35
2023/07/04 19:58:30;;;;;;;2.00;1.90;;;;;;;21.43;50.99;99497.31;10423711;28;20240;-35
2023/07/04 20:03:33;;;;;;;4.00;2.25;;;;;;;22.25;48.96;99486.75;10442142;28;20246;-35
2023/07/04 20:08:36;;;;;;;2.30;2.03;;;;;;;22.82;47.80;99486.78;10464270;28;20235;-35
2023/07/04 20:13:38;;;;;;;2.88;1.88;;;;;;;22.10;48.96;99498.44;10460303;28;20216;-35
2023/07/04 20:18:40;;;;;;;2.63;1.83;;;;;;;21.41;49.35;99537.59;10443416;28;20243;-35
2023/07/04 20:23:42;;;;;;;3.75;2.03;;;;;;;21.65;48.94;99508.03;10439501;28;20884;-33
2023/07/04 20:28:44;;;;;;;2.20;1.65;;;;;;;21.13;49.11;99538.72;10436064;28;20289;-33
2023/07/04 20:33:46;;;;;;;1.90;1.80;;;;;;;21.49;48.76;99506.31;10433760;28;20224;-35
2023/07/04 20:38:48;;;;;;;1.92;1.50;;;;;;;20.98;48.73;99513.03;10432389;28;20720;-33
2023/07/04 20:43:50;;;;;;;1.60;1.50;;;;;;;21.56;47.35;99524.06;10441086;28;20242;-33
2023/07/04 20:48:51;;;;;;;1.65;1.55;;;;;;;21.09;48.15;99529.44;10433333;28;20233;-35
2023/07/04 20:53:58;;;;;;;2.10;1.70;;;;;;;21.39;47.31;99529.69;10436574;28;20216;-35
2023/07/04 20:59:00;;;;;;;1.55;1.45;;;;;;;21.01;47.49;99534.28;10441231;28;20285;-34
2023/07/04 21:04:04;;;;;;;1.88;1.30;;;;;;;20.89;47.06;99536.38;10431458;28;20239;-33
2023/07/04 21:09:18;;;;;;;1.40;1.30;;;;;;;21.33;47.10;99497.22;10440602;28;20246;-33
2023/07/04 21:14:20;;;;;;;1.48;1.38;;;;;;;21.91;46.00;99475.44;10433815;28;20763;-34
2023/07/04 21:19:22;;;;;;;1.58;1.48;;;;;;;22.03;46.07;99483.41;10436975;28;22351;-33
2023/07/04 21:24:26;;;;;;;1.80;1.50;;;;;;;21.21;47.79;99465.59;10435926;28;20232;-33
2023/07/04 21:29:28;;;;;;;1.75;1.65;;;;;;;22.33;46.17;99456.22;10430290;28;20262;-34
2023/07/04 21:34:33;;;;;;;2.00;1.70;;;;;;;22.13;46.66;99469.81;10432252;28;20228;-34
2023/07/04 21:39:41;;;;;;;2.03;1.83;;;;;;;22.24;46.68;99443.41;10433607;28;20712;-36
2023/07/04 21:44:43;;;;;;;2.50;1.70;;;;;;;22.76;46.18;99420.53;10432676;28;20282;-35
2023/07/04 21:49:45;;;;;;;2.83;1.80;;;;;;;22.65;46.07;99421.63;10426600;28;20228;-36
2023/07/04 21:54:47;;;;;;;1.75;1.63;;;;;;;22.44;46.35;99439.88;10430224;28;20228;-41
2023/07/04 21:59:49;;;;;;;1.65;1.55;;;;;;;21.15;48.76;99452.22;10425361;28;20235;-39
2023/07/04 22:04:50;;;;;;;2.13;1.80;;;;;;;22.44;46.36;99404.44;10433714;28;20239;-34
2023/07/04 22:09:56;;;;;;;2.05;1.88;;;;;;;22.20;46.99;99398.69;10419653;28;20332;-39
2023/07/04 22:14:58;;;;;;;2.67;1.77;;;;;;;21.06;48.72;99438.31;10431771;28;20225;-41
2023/07/04 22:20:00;;;;;;;1.63;1.52;;;;;;;20.47;49.28;99431.06;10433468;28;20247;-39
2023/07/04 22:25:01;;;;;;;1.55;1.45;;;;;;;18.95;52.33;99400.00;10424135;28;20326;-40
2023/07/04 22:30:04;;;;;;;2.40;1.70;;;;;;;19.30;51.72;99385.25;10428710;28;20228;-35
2023/07/04 22:35:06;;;;;;;3.08;1.55;;;;;;;21.04;48.22;99367.03;10432725;28;20285;-39
2023/07/04 22:40:09;;;;;;;2.03;1.83;;;;;;;21.14;47.86;99383.41;10426376;28;20261;-40
2023/07/04 22:45:10;;;;;;;1.60;1.50;;;;;;;21.25;48.05;99376.09;10430404;28;20239;-37
2023/07/04 22:50:12;;;;;;;1.88;1.70;;;;;;;21.19;47.58;99377.19;10422143;28;20238;-39
2023/07/04 22:55:14;;;;;;;2.40;1.70;;;;;;;21.24;47.81;99375.28;10431021;28;20278;-40
2023/07/04 23:00:17;;;;;;;2.97;1.70;;;;;;;21.05;47.83;99396.69;10435971;28;20733;-38
2023/07/04 23:05:18;;;;;;;1.77;1.63;;;;;;;20.28;48.69;99408.91;10425224;28;20248;-36
2023/07/04 23:10:20;;;;;;;1.60;1.50;;;;;;;19.55;51.02;99333.19;10460733;28;20279;-42
2023/07/04 23:15:22;;;;;;;1.90;1.40;;;;;;;21.16;47.49;99339.63;10426388;28;20298;-36
2023/07/04 23:20:24;;;;;;;2.10;1.90;;;;;;;21.32;47.15;99379.38;10428615;28;20235;-37
2023/07/04 23:25:27;;;;;;;1.90;1.80;;;;;;;21.74;46.67;99345.78;10428115;28;20236;-41
2023/07/04 23:30:29;;;;;;;1.55;1.45;;;;;;;18.81;51.78;99346.13;10435230;28;20248;-41
2023/07/04 23:35:30;;;;;;;2.15;2.03;;;;;;;19.89;49.39;99347.41;10431607;28;20285;-38
2023/07/04 23:40:33;;;;;;;1.98;1.88;;;;;;;20.28;49.30;99295.63;10431339;28;20509;-35